createdAt,value
2023-03-11T00:00:29.874Z,2.70
2023-03-11T00:02:58.511Z,2.50
2023-03-11T00:05:27.397Z,2.60
2023-03-11T00:07:55.438Z,2.60
2023-03-11T00:10:27.027Z,2.70
2023-03-11T00:12:56.563Z,2.50
2023-03-11T00:15:24.384Z,2.70
2023-03-11T00:17:52.483Z,2.60
2023-03-11T00:20:21.673Z,2.60
2023-03-11T00:22:50.980Z,2.70
2023-03-11T00:25:19.210Z,2.60
2023-03-11T00:27:48.391Z,2.60
2023-03-11T00:30:17.097Z,2.60
2023-03-11T00:32:44.986Z,2.70
2023-03-11T00:35:13.836Z,2.70
2023-03-11T00:37:41.658Z,2.50
2023-03-11T00:40:13.211Z,2.60
2023-03-11T00:42:41.060Z,2.60
2023-03-11T00:45:10.921Z,2.50
2023-03-11T00:47:38.750Z,2.60
2023-03-11T00:50:07.566Z,2.70
2023-03-11T00:52:35.407Z,2.70
2023-03-11T00:55:03.255Z,2.90
2023-03-11T00:57:31.082Z,2.90
2023-03-11T01:00:00.050Z,2.80
2023-03-11T01:02:29.301Z,2.80
2023-03-11T01:04:57.256Z,2.70
2023-03-11T01:07:25.119Z,2.60
2023-03-11T01:09:52.950Z,2.70
2023-03-11T01:12:20.781Z,2.70
2023-03-11T01:14:48.610Z,2.70
2023-03-11T01:17:16.470Z,2.60
2023-03-11T01:19:45.693Z,2.50
2023-03-11T01:22:13.548Z,2.60
2023-03-11T01:24:41.410Z,2.40
2023-03-11T01:27:09.258Z,2.40
2023-03-11T01:29:37.114Z,2.40
2023-03-11T01:32:05.246Z,2.40
2023-03-11T01:34:35.689Z,2.40
2023-03-11T01:37:04.979Z,2.40
2023-03-11T01:39:32.829Z,2.50
2023-03-11T01:42:00.716Z,2.40
2023-03-11T01:44:28.573Z,2.20
2023-03-11T01:47:33.699Z,2.10
2023-03-11T01:50:01.696Z,2.10
2023-03-11T01:52:31.243Z,2.10
2023-03-11T01:54:59.104Z,2.10
2023-03-11T01:57:26.940Z,2.20
2023-03-11T01:59:56.781Z,2.20
2023-03-11T02:02:26.562Z,2.30
2023-03-11T02:04:54.420Z,2.40
2023-03-11T02:07:22.338Z,2.30
2023-03-11T02:09:51.528Z,2.30
2023-03-11T02:12:19.354Z,2.30
2023-03-11T02:14:48.160Z,2.30
2023-03-11T02:17:16.076Z,2.30
2023-03-11T02:19:54.767Z,2.00
2023-03-11T02:22:22.596Z,2.00
2023-03-11T02:24:56.333Z,2.20
2023-03-11T02:27:25.820Z,2.10
2023-03-11T02:29:54.573Z,1.90
2023-03-11T02:32:22.484Z,1.90
2023-03-11T02:34:50.319Z,2.00
2023-03-11T02:37:18.515Z,1.90
2023-03-11T02:39:47.345Z,2.00
2023-03-11T02:42:16.687Z,2.00
2023-03-11T02:44:46.564Z,1.80
2023-03-11T02:47:14.416Z,1.90
2023-03-11T02:49:42.225Z,1.90
2023-03-11T02:52:10.113Z,1.80
2023-03-11T02:54:37.927Z,1.80
2023-03-11T02:57:05.884Z,1.70
2023-03-11T02:59:33.703Z,1.80
2023-03-11T03:02:02.893Z,1.80
2023-03-11T03:04:30.746Z,1.90
2023-03-11T03:06:58.579Z,2.00
2023-03-11T03:09:26.433Z,1.90
2023-03-11T03:11:54.267Z,1.80
2023-03-11T03:14:22.073Z,1.80
2023-03-11T03:16:50.071Z,1.80
2023-03-11T03:19:19.451Z,1.80
2023-03-11T03:21:47.279Z,1.70
2023-03-11T03:24:15.088Z,1.80
2023-03-11T03:26:42.906Z,1.70
2023-03-11T03:29:10.721Z,1.70
2023-03-11T03:31:40.211Z,1.70
2023-03-11T03:34:08.079Z,1.90
2023-03-11T03:36:37.248Z,1.70
2023-03-11T03:39:05.323Z,1.80
2023-03-11T03:41:33.149Z,1.80
2023-03-11T03:44:01.012Z,1.90
2023-03-11T03:46:28.839Z,1.80
2023-03-11T03:48:56.772Z,1.80
2023-03-11T03:51:24.659Z,2.00
2023-03-11T03:53:53.840Z,1.90
2023-03-11T03:56:21.686Z,1.90
2023-03-11T03:58:49.523Z,1.90
2023-03-11T04:01:17.388Z,1.90
2023-03-11T04:03:45.309Z,1.80
2023-03-11T04:06:17.131Z,1.70
2023-03-11T04:08:45.194Z,1.70
2023-03-11T04:11:14.437Z,1.70
2023-03-11T04:13:44.626Z,1.70
2023-03-11T04:16:15.674Z,1.80
2023-03-11T04:18:43.530Z,1.80
2023-03-11T04:21:11.410Z,1.70
2023-03-11T04:23:39.241Z,1.60
2023-03-11T04:26:07.078Z,1.50
2023-03-11T04:28:36.279Z,1.60
2023-03-11T04:31:04.204Z,1.70
2023-03-11T04:33:32.032Z,1.70
2023-03-11T04:35:59.922Z,1.90
2023-03-11T04:38:27.796Z,1.70
2023-03-11T04:40:55.603Z,1.70
2023-03-11T04:43:23.436Z,1.70
2023-03-11T04:45:52.629Z,1.80
2023-03-11T04:48:20.476Z,1.80
2023-03-11T04:50:48.310Z,1.70
2023-03-11T04:53:16.168Z,1.80
2023-03-11T04:55:44.016Z,1.90
2023-03-11T04:58:11.837Z,1.60
2023-03-11T05:00:39.658Z,1.40
2023-03-11T05:03:08.945Z,1.50
2023-03-11T05:05:36.972Z,1.50
2023-03-11T05:08:05.092Z,1.60
2023-03-11T05:10:32.982Z,1.50
2023-03-11T05:13:00.808Z,1.40
2023-03-11T05:15:31.252Z,1.40
2023-03-11T05:17:59.119Z,1.40
2023-03-11T05:20:28.338Z,1.20
2023-03-11T05:22:56.147Z,1.20
2023-03-11T05:25:24.042Z,1.30
2023-03-11T05:27:51.896Z,1.10
2023-03-11T05:30:19.773Z,1.10
2023-03-11T05:32:47.615Z,1.10
2023-03-11T05:35:15.776Z,1.20
2023-03-11T05:37:44.944Z,1.20
2023-03-11T05:40:13.463Z,1.20
2023-03-11T05:42:42.104Z,1.10
2023-03-11T05:45:10.982Z,1.00
2023-03-11T05:47:38.808Z,0.90
2023-03-11T05:50:07.842Z,0.90
2023-03-11T05:52:35.715Z,0.80
2023-03-11T05:55:05.287Z,0.90
2023-03-11T05:57:33.107Z,1.10
2023-03-11T06:00:00.932Z,1.10
2023-03-11T06:02:28.746Z,1.10
2023-03-11T06:04:56.731Z,1.00
2023-03-11T06:07:24.650Z,1.10
2023-03-11T06:09:52.474Z,1.20
2023-03-11T06:12:21.650Z,1.10
2023-03-11T06:14:49.701Z,1.10
2023-03-11T06:17:17.516Z,1.00
2023-03-11T06:19:45.339Z,1.00
2023-03-11T06:22:13.167Z,1.10
2023-03-11T06:24:41.024Z,1.20
2023-03-11T06:27:11.190Z,1.20
2023-03-11T06:29:40.390Z,1.30
2023-03-11T06:32:08.612Z,1.20
2023-03-11T06:34:37.569Z,1.20
2023-03-11T06:37:05.487Z,1.10
2023-03-11T06:39:33.329Z,1.10
2023-03-11T06:42:01.144Z,1.10
2023-03-11T06:44:29.030Z,1.00
2023-03-11T06:46:58.264Z,1.00
2023-03-11T06:49:26.170Z,1.00
2023-03-11T06:51:54.152Z,1.00
2023-03-11T06:54:21.988Z,1.00
2023-03-11T06:56:49.909Z,1.00
2023-03-11T06:59:17.945Z,1.10
2023-03-11T07:01:45.924Z,1.30
2023-03-11T07:04:15.399Z,1.20
2023-03-11T07:06:43.362Z,1.00
2023-03-11T07:09:11.234Z,0.90
2023-03-11T07:11:39.077Z,1.10
2023-03-11T07:14:06.918Z,1.20
2023-03-11T07:16:34.814Z,1.10
2023-03-11T07:19:03.309Z,1.00
2023-03-11T07:21:32.752Z,1.10
2023-03-11T07:24:01.476Z,1.10
2023-03-11T07:26:29.644Z,1.20
2023-03-11T07:28:57.841Z,1.10
2023-03-11T07:31:26.774Z,1.20
2023-03-11T07:33:54.692Z,1.30
2023-03-11T07:36:23.919Z,1.50
2023-03-11T07:38:58.377Z,1.40
2023-03-11T07:41:26.290Z,1.30
2023-03-11T07:43:55.402Z,1.30
2023-03-11T07:46:23.491Z,1.20
2023-03-11T07:48:51.469Z,1.30
2023-03-11T07:51:20.154Z,1.30
2023-03-11T07:53:48.006Z,1.30
2023-03-11T07:56:17.596Z,1.50
2023-03-11T07:58:46.008Z,1.50
2023-03-11T08:01:16.068Z,1.50
2023-03-11T08:03:44.178Z,1.50
2023-03-11T08:06:15.100Z,1.60
2023-03-11T08:08:43.257Z,1.70
2023-03-11T08:11:11.244Z,1.60
2023-03-11T08:13:40.397Z,1.70
2023-03-11T08:16:09.632Z,1.70
2023-03-11T08:18:37.485Z,1.70
2023-03-11T08:21:05.987Z,1.70
2023-03-11T08:23:33.835Z,1.70
2023-03-11T08:26:04.413Z,1.80
2023-03-11T08:28:32.294Z,1.90
2023-03-11T08:31:01.751Z,1.90
2023-03-11T08:33:30.712Z,1.90
2023-03-11T08:35:58.702Z,1.90
2023-03-11T08:38:26.564Z,1.90
2023-03-11T08:40:54.378Z,2.00
2023-03-11T08:43:22.201Z,2.00
2023-03-11T08:45:50.157Z,2.00
2023-03-11T08:48:19.400Z,2.20
2023-03-11T08:50:53.802Z,2.30
2023-03-11T08:53:22.670Z,2.00
2023-03-11T08:55:50.645Z,2.10
2023-03-11T08:58:18.600Z,2.30
2023-03-11T09:00:46.415Z,2.30
2023-03-11T09:03:14.388Z,2.20
2023-03-11T09:05:43.732Z,2.20
2023-03-11T09:08:11.610Z,2.10
2023-03-11T09:10:39.453Z,2.10
2023-03-11T09:13:07.317Z,2.20
2023-03-11T09:15:36.453Z,2.30
2023-03-11T09:18:04.423Z,2.30
2023-03-11T09:20:32.477Z,3.00
2023-03-11T09:23:01.653Z,3.40
2023-03-11T09:25:29.641Z,2.80
2023-03-11T09:27:57.506Z,2.50
2023-03-11T09:30:25.416Z,2.40
2023-03-11T09:32:53.330Z,2.30
2023-03-11T09:35:21.157Z,2.40
2023-03-11T09:37:49.318Z,2.30
2023-03-11T09:40:19.746Z,2.20
2023-03-11T09:42:51.579Z,2.10
2023-03-11T09:45:20.460Z,1.80
2023-03-11T09:48:05.907Z,2.00
2023-03-11T09:50:34.521Z,1.90
2023-03-11T09:53:13.720Z,2.10
2023-03-11T09:55:45.172Z,1.80
2023-03-11T09:58:16.658Z,1.90
2023-03-11T10:00:44.500Z,1.90
2023-03-11T10:03:26.245Z,2.10
2023-03-11T10:05:55.028Z,2.20
2023-03-11T10:08:26.032Z,2.50
2023-03-11T10:10:58.915Z,2.30
2023-03-11T10:13:28.483Z,2.30
2023-03-11T10:16:01.627Z,2.30
2023-03-11T10:18:38.503Z,2.20
2023-03-11T10:21:08.733Z,2.30
2023-03-11T10:23:41.084Z,2.50
2023-03-11T10:26:13.333Z,2.30
2023-03-11T10:28:43.661Z,2.40
2023-03-11T10:31:20.251Z,2.50
2023-03-11T10:33:49.890Z,2.30
2023-03-11T10:36:23.924Z,2.20
2023-03-11T10:38:52.334Z,2.40
2023-03-11T10:41:23.022Z,2.50
2023-03-11T10:43:53.339Z,2.30
2023-03-11T10:46:22.379Z,2.30
2023-03-11T10:48:50.444Z,2.30
2023-03-11T10:51:22.421Z,2.30
2023-03-11T10:53:52.050Z,2.30
2023-03-11T10:56:30.091Z,2.20
2023-03-11T10:58:58.007Z,2.50
2023-03-11T11:01:26.077Z,2.60
2023-03-11T11:03:55.869Z,2.60
2023-03-11T11:06:26.657Z,2.70
2023-03-11T11:09:16.035Z,2.50
2023-03-11T11:12:00.770Z,2.50
2023-03-11T11:14:42.970Z,2.40
2023-03-11T11:17:20.250Z,2.50
2023-03-11T11:19:48.809Z,2.70
2023-03-11T11:22:18.178Z,2.90
2023-03-11T11:24:46.379Z,2.90
2023-03-11T11:27:19.355Z,2.80
2023-03-11T11:29:47.381Z,2.90
2023-03-11T11:32:24.964Z,2.60
2023-03-11T11:34:58.968Z,2.60
2023-03-11T11:37:31.748Z,2.80
2023-03-11T11:40:11.255Z,2.80
2023-03-11T11:42:41.270Z,2.90
2023-03-11T11:45:14.586Z,2.80
2023-03-11T11:47:45.213Z,2.90
2023-03-11T11:50:16.813Z,2.90
2023-03-11T11:52:47.395Z,2.90
2023-03-11T11:55:20.043Z,2.90
2023-03-11T11:57:49.303Z,2.90
2023-03-11T12:00:20.807Z,2.90
2023-03-11T12:02:59.200Z,2.80
2023-03-11T12:05:28.277Z,2.80
2023-03-11T12:08:02.571Z,2.90
2023-03-11T12:10:32.097Z,2.90
2023-03-11T12:13:30.045Z,2.90
2023-03-11T12:16:00.855Z,2.90
2023-03-11T12:18:35.157Z,2.90
2023-03-11T12:21:05.852Z,2.90
2023-03-11T12:23:39.531Z,3.10
2023-03-11T12:26:15.107Z,3.20
2023-03-11T12:28:46.846Z,3.20
2023-03-11T12:31:14.736Z,3.00
2023-03-11T12:33:43.355Z,3.10
2023-03-11T12:36:23.559Z,3.10
2023-03-11T12:38:51.497Z,3.40
2023-03-11T12:41:36.865Z,3.10
2023-03-11T12:44:22.220Z,3.70
2023-03-11T12:47:04.260Z,3.60
2023-03-11T12:49:32.401Z,3.40
2023-03-11T12:52:05.256Z,3.20
2023-03-11T12:54:34.174Z,2.70
2023-03-11T12:57:06.651Z,2.80
2023-03-11T12:59:49.898Z,2.80
2023-03-11T13:02:30.112Z,2.90
2023-03-11T13:04:59.061Z,2.90
2023-03-11T13:07:44.357Z,3.20
2023-03-11T13:10:18.169Z,3.30
2023-03-11T13:12:46.417Z,3.50
2023-03-11T13:15:34.670Z,3.70
2023-03-11T13:18:03.496Z,3.90
2023-03-11T13:20:50.650Z,4.00
2023-03-11T13:23:29.826Z,4.00
2023-03-11T13:26:31.158Z,3.70
2023-03-11T13:29:23.273Z,3.70
2023-03-11T13:32:05.549Z,3.80
2023-03-11T13:34:37.974Z,4.00
2023-03-11T13:37:12.634Z,3.90
2023-03-11T13:39:47.155Z,3.80
2023-03-11T13:42:18.193Z,4.00
2023-03-11T13:44:46.038Z,3.90
2023-03-11T13:47:17.327Z,3.60
2023-03-11T13:49:46.480Z,3.60
2023-03-11T13:52:15.710Z,3.80
2023-03-11T13:54:45.360Z,3.80
2023-03-11T13:57:25.725Z,3.50
2023-03-11T13:59:55.030Z,3.70
2023-03-11T14:02:25.325Z,3.70
2023-03-11T14:04:55.316Z,3.70
2023-03-11T14:07:26.472Z,3.90
2023-03-11T14:10:19.116Z,3.80
2023-03-11T14:12:47.050Z,3.70
2023-03-11T14:15:15.603Z,3.60
2023-03-11T14:17:46.587Z,3.60
2023-03-11T14:20:17.444Z,3.60
2023-03-11T14:22:45.932Z,3.50
2023-03-11T14:25:18.379Z,3.50
2023-03-11T14:27:50.810Z,3.60
2023-03-11T14:30:23.284Z,3.60
2023-03-11T14:33:02.832Z,3.50
2023-03-11T14:35:31.194Z,3.30
2023-03-11T14:37:59.158Z,3.30
2023-03-11T14:40:30.760Z,3.40
2023-03-11T14:42:59.856Z,3.50
2023-03-11T14:45:29.678Z,3.40
2023-03-11T14:47:59.277Z,3.40
2023-03-11T14:50:30.512Z,3.50
2023-03-11T14:52:59.514Z,3.50
2023-03-11T14:55:29.117Z,3.40
2023-03-11T14:57:58.065Z,3.30
2023-03-11T15:00:26.812Z,3.50
2023-03-11T15:03:02.747Z,3.40
2023-03-11T15:05:38.190Z,3.50
2023-03-11T15:08:07.296Z,3.60
2023-03-11T15:10:36.855Z,3.50
2023-03-11T15:13:06.260Z,3.50
2023-03-11T15:15:34.090Z,3.50
2023-03-11T15:18:05.446Z,3.40
2023-03-11T15:20:34.142Z,3.50
2023-03-11T15:23:03.939Z,3.40
2023-03-11T15:25:33.266Z,3.40
2023-03-11T15:28:01.566Z,3.30
2023-03-11T15:30:30.257Z,3.30
2023-03-11T15:32:58.821Z,3.50
2023-03-11T15:35:26.869Z,3.60
2023-03-11T15:38:14.326Z,3.60
2023-03-11T15:40:45.705Z,3.60
2023-03-11T15:43:25.154Z,3.50
2023-03-11T15:45:54.722Z,3.30
2023-03-11T15:48:22.802Z,3.40
2023-03-11T15:50:53.735Z,3.30
2023-03-11T15:53:24.158Z,3.20
2023-03-11T15:55:52.098Z,3.20
2023-03-11T15:58:23.283Z,3.10
2023-03-11T16:00:52.986Z,3.30
2023-03-11T16:03:21.140Z,3.30
2023-03-11T16:05:49.063Z,3.30
2023-03-11T16:08:17.122Z,3.20
2023-03-11T16:10:46.374Z,3.30
2023-03-11T16:13:14.568Z,3.20
2023-03-11T16:15:42.607Z,3.10
2023-03-11T16:18:10.504Z,3.10
2023-03-11T16:20:39.864Z,3.10
2023-03-11T16:23:10.849Z,3.20
2023-03-11T16:25:40.063Z,3.20
2023-03-11T16:28:13.251Z,3.20
2023-03-11T16:30:41.061Z,3.30
2023-03-11T16:33:08.891Z,3.30
2023-03-11T16:35:36.836Z,3.20
2023-03-11T16:38:04.758Z,3.20
2023-03-11T16:40:32.717Z,3.30
2023-03-11T16:43:02.061Z,3.30
2023-03-11T16:45:31.260Z,3.30
2023-03-11T16:47:59.100Z,3.20
2023-03-11T16:50:27.407Z,3.10
2023-03-11T16:52:55.441Z,3.20
2023-03-11T16:55:23.567Z,3.30
2023-03-11T16:57:51.566Z,3.30
2023-03-11T17:00:19.759Z,3.30
2023-03-11T17:02:48.937Z,3.40
2023-03-11T17:05:16.869Z,3.40
2023-03-11T17:07:44.779Z,3.40
2023-03-11T17:10:16.258Z,3.30
2023-03-11T17:12:44.088Z,3.30
2023-03-11T17:15:12.343Z,3.30
2023-03-11T17:17:40.552Z,3.20
2023-03-11T17:20:11.597Z,3.30
2023-03-11T17:22:39.510Z,3.30
2023-03-11T17:25:08.529Z,3.30
2023-03-11T17:27:36.514Z,3.40
2023-03-11T17:30:06.349Z,3.40
2023-03-11T17:32:34.339Z,3.40
2023-03-11T17:35:02.225Z,3.40
2023-03-11T17:37:31.517Z,3.40
2023-03-11T17:39:59.407Z,3.30
2023-03-11T17:42:27.342Z,3.30
2023-03-11T17:44:56.419Z,3.30
2023-03-11T17:47:26.199Z,3.30
2023-03-11T17:49:54.303Z,3.40
2023-03-11T17:52:22.197Z,3.30
2023-03-11T17:54:52.057Z,3.40
2023-03-11T17:57:22.677Z,3.40
2023-03-11T17:59:52.593Z,3.40
2023-03-11T18:02:20.665Z,3.40
2023-03-11T18:04:52.121Z,3.40
2023-03-11T18:07:22.296Z,3.50
2023-03-11T18:09:53.431Z,3.50
2023-03-11T18:12:21.388Z,3.30
2023-03-11T18:14:49.269Z,3.30
2023-03-11T18:17:18.510Z,3.30
2023-03-11T18:19:46.617Z,3.40
2023-03-11T18:22:15.437Z,3.50
2023-03-11T18:24:45.416Z,3.50
2023-03-11T18:27:14.824Z,3.50
2023-03-11T18:29:43.506Z,3.50
2023-03-11T18:32:11.476Z,3.30
2023-03-11T18:34:40.429Z,3.30
2023-03-11T18:37:08.365Z,3.40
2023-03-11T18:39:36.334Z,3.40
2023-03-11T18:42:05.367Z,3.20
2023-03-11T18:44:36.842Z,3.10
2023-03-11T18:47:04.879Z,3.10
2023-03-11T18:49:32.954Z,3.00
2023-03-11T18:52:01.010Z,3.00
2023-03-11T18:54:29.026Z,3.00
2023-03-11T18:56:56.924Z,2.90
2023-03-11T18:59:26.752Z,2.90
2023-03-11T19:01:56.312Z,3.00
2023-03-11T19:04:24.360Z,2.90
2023-03-11T19:06:52.308Z,2.90
2023-03-11T19:09:20.168Z,2.90
2023-03-11T19:11:48.023Z,3.00
2023-03-11T19:14:15.851Z,3.00
2023-03-11T19:16:44.640Z,2.90
2023-03-11T19:19:13.885Z,2.90
2023-03-11T19:21:41.702Z,2.90
2023-03-11T19:24:09.551Z,2.80
2023-03-11T19:26:45.365Z,2.80
2023-03-11T19:29:14.518Z,2.80
2023-03-11T19:31:43.431Z,2.80
2023-03-11T19:34:11.320Z,2.80
2023-03-11T19:36:40.614Z,2.70
2023-03-11T19:39:08.721Z,2.70
2023-03-11T19:41:39.239Z,2.70
2023-03-11T19:44:09.011Z,2.80
2023-03-11T19:46:36.917Z,2.70
2023-03-11T19:49:06.486Z,2.70
2023-03-11T19:51:48.695Z,2.70
2023-03-11T19:54:21.794Z,2.80
2023-03-11T19:56:49.673Z,2.60
2023-03-11T19:59:17.704Z,2.50
2023-03-11T20:01:45.650Z,2.60
2023-03-11T20:04:24.964Z,2.50
2023-03-11T20:06:52.788Z,2.70
2023-03-11T20:09:22.656Z,2.60
2023-03-11T20:11:50.550Z,2.60
2023-03-11T20:14:18.383Z,2.50
2023-03-11T20:16:46.285Z,2.60
2023-03-11T20:19:14.233Z,2.40
2023-03-11T20:21:43.948Z,2.20
2023-03-11T20:24:15.921Z,2.30
2023-03-11T20:26:45.248Z,2.20
2023-03-11T20:29:13.123Z,2.10
2023-03-11T20:31:41.090Z,2.20
2023-03-11T20:34:08.949Z,2.20
2023-03-11T20:36:36.857Z,2.20
2023-03-11T20:39:05.810Z,2.30
2023-03-11T20:41:35.785Z,2.30
2023-03-11T20:44:05.453Z,2.40
2023-03-11T20:46:33.979Z,2.30
2023-03-11T20:49:02.163Z,2.20
2023-03-11T20:51:30.017Z,2.20
2023-03-11T20:53:57.854Z,2.20
2023-03-11T20:56:26.557Z,2.10
2023-03-11T20:58:55.793Z,2.10
2023-03-11T21:01:26.700Z,2.10
2023-03-11T21:03:54.832Z,2.10
2023-03-11T21:06:23.309Z,2.10
2023-03-11T21:08:51.181Z,2.10
2023-03-11T21:11:19.395Z,2.00
2023-03-11T21:13:47.335Z,2.00
2023-03-11T21:16:15.354Z,1.90
2023-03-11T21:18:45.205Z,1.90
2023-03-11T21:21:13.602Z,1.90
2023-03-11T21:23:42.084Z,1.90
2023-03-11T21:26:10.006Z,1.90
2023-03-11T21:28:38.873Z,2.00
2023-03-11T21:31:07.773Z,2.00
2023-03-11T21:33:35.767Z,1.90
2023-03-11T21:36:05.643Z,1.90
2023-03-11T21:38:33.789Z,1.90
2023-03-11T21:41:05.995Z,1.90
2023-03-11T21:43:34.018Z,1.90
2023-03-11T21:46:01.998Z,1.90
2023-03-11T21:48:30.042Z,2.00
2023-03-11T21:50:57.888Z,1.90
2023-03-11T21:53:27.302Z,1.80
2023-03-11T21:55:55.173Z,1.80
2023-03-11T21:58:25.287Z,1.80
2023-03-11T22:00:53.572Z,1.80
2023-03-11T22:03:21.596Z,1.90
2023-03-11T22:05:49.771Z,2.00
2023-03-11T22:08:17.673Z,2.00
2023-03-11T22:10:47.053Z,1.90
2023-03-11T22:13:14.903Z,1.90
2023-03-11T22:15:42.811Z,1.90
2023-03-11T22:18:11.760Z,1.90
2023-03-11T22:20:40.809Z,1.80
2023-03-11T22:23:08.849Z,1.80
2023-03-11T22:25:36.697Z,1.90
2023-03-11T22:28:06.104Z,1.80
2023-03-11T22:30:33.940Z,1.90
2023-03-11T22:33:01.784Z,1.90
2023-03-11T22:35:29.646Z,1.80
2023-03-11T22:37:57.631Z,1.80
2023-03-11T22:40:26.152Z,1.80
2023-03-11T22:42:53.987Z,1.80
2023-03-11T22:45:23.169Z,1.70
2023-03-11T22:47:51.142Z,1.70
2023-03-11T22:50:19.175Z,1.70
2023-03-11T22:52:47.113Z,1.70
2023-03-11T22:55:14.924Z,1.70
2023-03-11T22:57:42.755Z,1.60
2023-03-11T23:00:17.034Z,1.60
2023-03-11T23:02:46.812Z,1.60
2023-03-11T23:05:14.883Z,1.60
2023-03-11T23:07:42.786Z,1.50
2023-03-11T23:10:12.452Z,1.60
2023-03-11T23:12:40.320Z,1.60
2023-03-11T23:15:09.531Z,1.60
2023-03-11T23:17:37.366Z,1.50
2023-03-11T23:20:07.786Z,1.50
2023-03-11T23:22:36.070Z,1.50
2023-03-11T23:25:03.956Z,1.60
2023-03-11T23:27:31.805Z,1.60
2023-03-11T23:29:59.657Z,1.50
2023-03-11T23:32:27.525Z,1.50
2023-03-11T23:34:55.378Z,1.50
2023-03-11T23:37:24.713Z,1.40
2023-03-11T23:39:52.519Z,1.40
2023-03-11T23:42:25.953Z,1.40
2023-03-11T23:44:54.221Z,1.50
2023-03-11T23:47:23.379Z,1.50
2023-03-11T23:49:51.211Z,1.50
2023-03-11T23:52:19.178Z,1.40
2023-03-11T23:54:48.345Z,1.40
2023-03-11T23:57:16.163Z,1.40
2023-03-11T23:59:44.077Z,1.30
